Time;durP1;ratioP1;P1;durP2;ratioP2;P2;SDS_P1;SDS_P2;PMS_P1;PMS_P2;Temp;Humidity;BMP_temperature;BMP_pressure;BME280_temperature;BME280_humidity;BME280_pressure;Samples;Min_cycle;Max_cycle;Signal;HPM_P1;HPM_P2
2022/07/29 00:01:21;;;;;;;5.32;1.15;;;;;;;19.99;100.00;98627.78;5110196;27;20084;-90
2022/07/29 00:03:47;;;;;;;6.35;1.13;;;;;;;20.18;100.00;98630.34;5104555;28;20043;-89
2022/07/29 00:06:13;;;;;;;5.85;1.52;;;;;;;19.58;100.00;98628.81;5101205;28;20059;-89
2022/07/29 00:08:38;;;;;;;4.65;1.10;;;;;;;19.63;100.00;98629.44;5094852;28;20071;-89
2022/07/29 00:11:04;;;;;;;6.63;1.17;;;;;;;19.54;100.00;98632.53;5093161;28;20678;-88
2022/07/29 00:13:29;;;;;;;5.85;1.13;;;;;;;19.53;100.00;98628.19;5109870;27;20039;-88
2022/07/29 00:15:55;;;;;;;5.13;1.13;;;;;;;19.78;100.00;98633.16;5092385;28;20031;-89
2022/07/29 00:18:20;;;;;;;4.35;0.95;;;;;;;19.22;100.00;98626.97;5092182;28;20032;-89
2022/07/29 00:20:46;;;;;;;5.55;1.30;;;;;;;19.39;100.00;98620.91;5092221;28;20035;-89
2022/07/29 00:23:11;;;;;;;5.93;1.30;;;;;;;18.79;100.00;98621.84;5094072;28;20082;-89
2022/07/29 00:25:37;;;;;;;4.28;1.10;;;;;;;18.90;100.00;98626.66;5091608;28;20379;-89
2022/07/29 00:28:03;;;;;;;7.90;1.40;;;;;;;19.23;100.00;98626.03;5090568;28;20711;-89
2022/07/29 00:30:28;;;;;;;7.10;1.35;;;;;;;19.18;100.00;98625.41;5093782;28;20031;-89
2022/07/29 00:32:54;;;;;;;5.25;1.20;;;;;;;19.14;100.00;98619.41;5090847;28;20044;-89
2022/07/29 00:38:06;;;;;;;6.80;1.42;;;;;;;19.23;100.00;98624.28;5091314;28;20115;-89
2022/07/29 00:40:31;;;;;;;5.60;1.20;;;;;;;19.15;100.00;98629.06;5093214;28;20032;-89
2022/07/29 00:42:57;;;;;;;4.72;1.10;;;;;;;17.90;100.00;98629.97;5093887;28;20028;-88
2022/07/29 00:45:23;;;;;;;9.00;1.20;;;;;;;17.69;100.00;98629.09;5089802;28;20176;-89
2022/07/29 00:47:49;;;;;;;7.88;1.38;;;;;;;18.90;100.00;98627.53;5095179;27;20549;-89
2022/07/29 00:50:15;;;;;;;6.50;1.20;;;;;;;18.65;100.00;98627.75;5090276;28;20020;-89
2022/07/29 00:52:42;;;;;;;6.10;1.27;;;;;;;18.72;100.00;98625.69;5092908;28;20032;-89
2022/07/29 00:55:14;;;;;;;5.18;1.00;;;;;;;19.17;100.00;98621.06;5090961;28;20778;-89
2022/07/29 00:57:41;;;;;;;7.03;1.35;;;;;;;18.64;100.00;98627.81;5095429;28;20020;-89
2022/07/29 01:00:11;;;;;;;5.55;1.10;;;;;;;18.51;100.00;98622.19;5097409;28;20085;-90
2022/07/29 01:02:37;;;;;;;4.43;1.10;;;;;;;18.47;100.00;98620.59;5092002;28;20043;-89
2022/07/29 01:05:07;;;;;;;5.50;1.20;;;;;;;18.62;100.00;98612.00;5093187;28;20026;-89
2022/07/29 01:07:34;;;;;;;6.05;1.30;;;;;;;18.89;100.00;98619.69;5098496;28;20035;-89
2022/07/29 01:10:03;;;;;;;6.13;1.17;;;;;;;18.71;100.00;98608.97;5094898;28;20073;-90
2022/07/29 01:12:33;;;;;;;5.40;1.33;;;;;;;18.53;100.00;98618.56;5094736;28;20041;-89
2022/07/29 01:15:00;;;;;;;6.03;1.40;;;;;;;18.72;100.00;98615.13;5091111;28;20036;-89
2022/07/29 01:17:32;;;;;;;5.47;1.10;;;;;;;18.68;100.00;98611.75;5096677;28;20042;-89
2022/07/29 01:20:17;;;;;;;6.65;1.20;;;;;;;18.66;100.00;98613.59;5091197;28;20059;-89
2022/07/29 01:23:05;;;;;;;6.13;1.10;;;;;;;18.53;100.00;98613.28;5098426;28;20130;-89
2022/07/29 01:25:45;;;;;;;5.25;1.23;;;;;;;18.32;100.00;98612.44;5097090;28;20105;-89
2022/07/29 01:28:44;;;;;;;3.30;0.95;;;;;;;18.28;100.00;98610.84;5085767;28;20039;-89
2022/07/29 01:31:12;;;;;;;5.15;1.23;;;;;;;18.04;100.00;98613.63;5092343;28;20402;-89
2022/07/29 01:33:52;;;;;;;6.90;1.30;;;;;;;17.93;100.00;98618.47;5094497;28;20036;-89
2022/07/29 01:36:32;;;;;;;5.55;1.30;;;;;;;18.11;100.00;98615.97;5091892;28;20031;-89
2022/07/29 01:39:06;;;;;;;6.50;1.60;;;;;;;18.13;100.00;98622.06;5105549;27;20039;-89
2022/07/29 01:41:34;;;;;;;4.25;1.20;;;;;;;18.04;100.00;98624.16;5093394;28;20093;-89
2022/07/29 01:44:08;;;;;;;7.28;1.10;;;;;;;18.19;100.00;98622.66;5095422;28;20110;-89
2022/07/29 01:46:37;;;;;;;4.80;1.20;;;;;;;18.04;100.00;98618.88;5090194;28;20478;-89
2022/07/29 01:49:11;;;;;;;10.65;1.40;;;;;;;17.97;100.00;98621.84;5089553;28;20082;-88
2022/07/29 01:51:49;;;;;;;5.13;1.35;;;;;;;17.83;100.00;98617.09;5095660;28;20026;-89
2022/07/29 01:54:26;;;;;;;6.75;1.40;;;;;;;18.16;100.00;98611.38;5088675;27;20692;-89
2022/07/29 01:56:55;;;;;;;5.30;1.40;;;;;;;18.11;100.00;98608.94;5090635;28;20050;-89
2022/07/29 01:59:21;;;;;;;6.65;1.33;;;;;;;18.22;100.00;98611.97;5093131;28;20430;-88
2022/07/29 02:01:49;;;;;;;7.90;1.52;;;;;;;17.68;100.00;98616.81;5089246;28;20027;-88
2022/07/29 02:04:18;;;;;;;6.72;1.50;;;;;;;18.31;100.00;98605.44;5094590;28;20020;-88
2022/07/29 02:06:45;;;;;;;6.57;1.33;;;;;;;18.34;100.00;98613.22;5091694;28;20495;-89
2022/07/29 02:09:14;;;;;;;9.00;1.58;;;;;;;18.22;100.00;98605.84;5094089;28;20119;-89
2022/07/29 02:11:45;;;;;;;5.70;1.35;;;;;;;18.01;100.00;98608.47;5091178;28;20031;-89
2022/07/29 02:14:13;;;;;;;5.30;1.10;;;;;;;18.03;100.00;98603.97;5089221;28;20118;-89
2022/07/29 02:16:40;;;;;;;6.88;1.42;;;;;;;17.79;100.00;98604.97;5086801;28;20715;-88
2022/07/29 02:19:08;;;;;;;5.20;1.50;;;;;;;18.16;100.00;98609.63;5087094;28;20041;-89
2022/07/29 02:21:35;;;;;;;5.25;1.40;;;;;;;18.39;100.00;98603.31;5092645;28;20032;-89
2022/07/29 02:24:02;;;;;;;5.22;1.30;;;;;;;18.43;100.00;98614.63;5088894;28;20039;-89
2022/07/29 02:26:30;;;;;;;5.10;1.40;;;;;;;18.47;100.00;98615.31;5100887;28;20092;-89
2022/07/29 02:28:58;;;;;;;5.43;1.27;;;;;;;18.55;100.00;98610.56;5093057;28;20024;-89
2022/07/29 02:31:26;;;;;;;5.80;1.50;;;;;;;18.59;100.00;98606.88;5095373;28;20551;-89
2022/07/29 02:33:53;;;;;;;7.93;1.30;;;;;;;18.75;100.00;98607.06;5088566;28;20137;-89
2022/07/29 02:36:22;;;;;;;5.88;1.58;;;;;;;17.95;100.00;98613.97;5089143;28;20797;-89
2022/07/29 02:38:53;;;;;;;8.73;1.77;;;;;;;17.96;100.00;98613.06;5096658;28;20028;-89
2022/07/29 02:41:29;;;;;;;8.27;1.58;;;;;;;18.37;100.00;98614.88;5088488;28;20115;-89
2022/07/29 02:43:57;;;;;;;8.00;1.83;;;;;;;18.21;100.00;98614.69;5089175;28;20024;-89
2022/07/29 02:46:35;;;;;;;7.82;1.80;;;;;;;17.79;100.00;98615.53;5091255;28;20184;-89
2022/07/29 02:49:51;;;;;;;6.78;1.70;;;;;;;17.59;100.00;98611.88;5094786;28;20645;-89
2022/07/29 02:52:41;;;;;;;7.72;1.58;;;;;;;17.87;100.00;98610.78;5077673;28;20591;-89
2022/07/29 02:55:16;;;;;;;6.57;1.58;;;;;;;17.49;100.00;98610.56;5107293;28;20040;-89
2022/07/29 02:57:46;;;;;;;5.78;1.80;;;;;;;17.53;100.00;98606.88;5090536;28;20028;-89
2022/07/29 03:00:13;;;;;;;7.40;1.92;;;;;;;17.35;100.00;98609.31;5092739;28;20715;-89
2022/07/29 03:02:43;;;;;;;11.05;1.88;;;;;;;17.78;100.00;98611.16;5093929;28;20066;-89
2022/07/29 03:05:15;;;;;;;8.85;1.95;;;;;;;18.10;100.00;98604.56;5098547;28;20039;-89
2022/07/29 03:07:45;;;;;;;7.85;1.60;;;;;;;17.39;100.00;98607.44;5093413;28;20043;-89
2022/07/29 03:10:11;;;;;;;7.85;1.55;;;;;;;17.64;100.00;98609.94;5086300;28;20034;-89
2022/07/29 03:12:37;;;;;;;7.75;2.00;;;;;;;17.54;100.00;98611.25;5089897;28;20132;-89
2022/07/29 03:15:03;;;;;;;6.38;1.80;;;;;;;17.77;100.00;98605.00;5091965;28;20086;-89
2022/07/29 03:17:31;;;;;;;7.05;1.85;;;;;;;17.90;100.00;98611.50;5090062;28;20032;-89
2022/07/29 03:19:57;;;;;;;6.22;1.70;;;;;;;17.71;100.00;98608.75;5088370;28;20427;-89
2022/07/29 03:22:24;;;;;;;6.13;1.75;;;;;;;17.51;100.00;98606.94;5091313;28;20510;-89
2022/07/29 03:24:52;;;;;;;7.60;1.85;;;;;;;17.44;100.00;98600.19;5090064;28;20555;-89
2022/07/29 03:27:18;;;;;;;8.48;1.95;;;;;;;17.39;100.00;98605.63;5090564;28;20035;-89
2022/07/29 03:29:43;;;;;;;5.53;1.60;;;;;;;17.20;100.00;98613.41;5086907;28;20024;-88
2022/07/29 03:32:09;;;;;;;8.15;2.00;;;;;;;17.43;100.00;98609.03;5089173;28;20039;-89
2022/07/29 03:34:37;;;;;;;7.35;1.70;;;;;;;17.66;100.00;98607.22;5089987;28;20028;-89
2022/07/29 03:37:02;;;;;;;9.35;1.65;;;;;;;18.10;100.00;98609.00;5089834;28;20471;-90
2022/07/29 03:39:33;;;;;;;6.85;1.80;;;;;;;17.72;100.00;98607.84;5095520;28;20047;-90
2022/07/29 03:42:00;;;;;;;9.80;1.75;;;;;;;17.73;100.00;98614.84;5097603;28;20036;-90
2022/07/29 03:44:27;;;;;;;5.22;1.70;;;;;;;18.02;100.00;98612.84;5098449;27;20031;-89
2022/07/29 03:46:55;;;;;;;7.53;1.67;;;;;;;17.78;100.00;98617.28;5111803;27;20028;-90
2022/07/29 03:49:22;;;;;;;6.18;1.52;;;;;;;17.60;100.00;98610.97;5098935;28;20497;-90
2022/07/29 03:51:48;;;;;;;11.88;2.17;;;;;;;17.59;100.00;98606.63;5096810;28;20027;-90
2022/07/29 03:54:14;;;;;;;7.30;1.70;;;;;;;17.47;100.00;98607.97;5091588;28;20047;-91
2022/07/29 03:56:42;;;;;;;6.93;1.70;;;;;;;17.91;100.00;98601.84;5095996;28;20028;-90
2022/07/29 03:59:09;;;;;;;8.00;1.70;;;;;;;17.86;100.00;98604.66;5094702;28;20046;-91
2022/07/29 04:01:36;;;;;;;6.32;1.77;;;;;;;17.31;100.00;98610.34;5095559;28;20436;-89
2022/07/29 04:04:02;;;;;;;7.50;1.70;;;;;;;17.27;100.00;98603.50;5099016;28;20056;-91
2022/07/29 04:06:28;;;;;;;9.43;1.90;;;;;;;17.13;100.00;98609.31;5098433;28;20540;-90
2022/07/29 04:08:53;;;;;;;6.68;1.70;;;;;;;17.24;100.00;98608.88;5091614;28;20102;-90
2022/07/29 04:11:20;;;;;;;7.82;1.98;;;;;;;17.61;100.00;98609.22;5098003;28;20031;-90
2022/07/29 04:13:45;;;;;;;7.57;1.77;;;;;;;17.53;100.00;98612.16;5094251;28;20403;-90
2022/07/29 04:16:11;;;;;;;8.63;1.88;;;;;;;17.66;100.00;98609.88;5095050;28;20036;-90
2022/07/29 04:18:36;;;;;;;6.75;1.60;;;;;;;17.93;100.00;98613.22;5098954;28;20483;-90
2022/07/29 04:21:03;;;;;;;7.85;1.80;;;;;;;17.87;100.00;98613.41;5092160;28;21748;-91
2022/07/29 04:23:33;;;;;;;9.05;1.77;;;;;;;17.90;100.00;98615.94;5095485;28;20154;-90
2022/07/29 04:26:00;;;;;;;7.13;1.75;;;;;;;18.19;100.00;98609.47;5093889;28;20036;-89
2022/07/29 04:28:25;;;;;;;6.40;1.80;;;;;;;17.60;100.00;98616.25;5091254;28;20032;-90
2022/07/29 04:30:51;;;;;;;6.45;1.80;;;;;;;17.79;100.00;98611.09;5096347;28;20054;-91
2022/07/29 04:33:17;;;;;;;8.52;1.88;;;;;;;18.04;100.00;98610.97;5094003;28;20028;-90
2022/07/29 04:35:42;;;;;;;7.43;1.75;;;;;;;17.74;100.00;98610.44;5091056;28;20089;-90
2022/07/29 04:38:08;;;;;;;6.78;1.60;;;;;;;17.99;100.00;98609.44;5090735;28;20211;-89
2022/07/29 04:40:34;;;;;;;6.15;1.73;;;;;;;17.82;100.00;98612.75;5092496;28;20032;-90
2022/07/29 04:43:00;;;;;;;11.45;2.13;;;;;;;17.81;100.00;98616.31;5094978;28;20028;-89
2022/07/29 04:45:26;;;;;;;10.02;2.10;;;;;;;17.74;100.00;98618.34;5094241;28;20090;-89
2022/07/29 04:47:52;;;;;;;9.38;2.15;;;;;;;17.89;100.00;98619.50;5099529;28;20024;-89
2022/07/29 04:50:17;;;;;;;7.65;1.83;;;;;;;17.55;100.00;98624.34;5092381;28;20391;-91
2022/07/29 04:52:43;;;;;;;6.43;1.83;;;;;;;18.39;100.00;98618.31;5090043;28;21030;-90
2022/07/29 04:55:09;;;;;;;7.68;1.83;;;;;;;18.00;100.00;98619.94;5092067;28;20056;-90
2022/07/29 04:57:34;;;;;;;7.22;1.83;;;;;;;18.74;100.00;98622.03;5084331;28;20040;-89
2022/07/29 05:00:00;;;;;;;12.00;2.15;;;;;;;18.72;100.00;98629.19;5072952;28;20031;-89
2022/07/29 05:02:26;;;;;;;8.60;1.67;;;;;;;18.75;100.00;98631.69;5097562;28;20073;-90
2022/07/29 05:04:51;;;;;;;10.95;2.08;;;;;;;18.48;100.00;98630.25;5074351;28;20028;-90
2022/07/29 05:07:17;;;;;;;7.32;1.85;;;;;;;18.75;100.00;98630.84;5074494;28;20028;-89
2022/07/29 05:09:42;;;;;;;7.57;1.95;;;;;;;18.97;100.00;98627.25;5094926;28;20036;-89
2022/07/29 05:12:09;;;;;;;8.45;1.67;;;;;;;18.69;100.00;98639.00;5078002;28;20118;-90
2022/07/29 05:14:35;;;;;;;9.75;2.00;;;;;;;18.67;100.00;98632.97;5074002;28;20054;-90
2022/07/29 05:17:00;;;;;;;6.97;1.80;;;;;;;18.45;100.00;98633.88;5078450;28;20122;-89
2022/07/29 05:19:26;;;;;;;8.20;2.10;;;;;;;18.59;100.00;98634.16;5074062;28;20395;-89
2022/07/29 05:21:51;;;;;;;10.07;1.90;;;;;;;18.53;100.00;98644.13;5070965;28;20070;-90
2022/07/29 05:24:17;;;;;;;6.72;2.00;;;;;;;18.62;100.00;98640.22;5075118;28;20066;-89
2022/07/29 05:26:42;;;;;;;8.38;1.98;;;;;;;19.23;100.00;98641.91;5073851;28;20024;-89
2022/07/29 05:29:08;;;;;;;7.45;1.70;;;;;;;19.20;100.00;98639.41;5096127;28;20027;-89
2022/07/29 05:31:33;;;;;;;7.90;1.80;;;;;;;18.86;100.00;98647.06;5077874;28;20110;-89
2022/07/29 05:34:00;;;;;;;7.40;1.80;;;;;;;19.09;100.00;98638.13;5078934;28;20436;-90
2022/07/29 05:36:25;;;;;;;8.20;1.90;;;;;;;18.98;100.00;98647.47;5092907;28;20027;-90
2022/07/29 05:38:51;;;;;;;7.40;1.73;;;;;;;19.19;100.00;98645.63;5090522;28;20513;-89
2022/07/29 05:41:18;;;;;;;6.95;1.70;;;;;;;20.45;100.00;98650.13;5097113;28;20027;-90
2022/07/29 05:43:43;;;;;;;6.75;1.88;;;;;;;19.73;100.00;98657.16;5093516;28;20020;-90
2022/07/29 05:46:09;;;;;;;7.93;1.80;;;;;;;19.66;100.00;98650.47;5081789;28;20054;-90
2022/07/29 05:48:34;;;;;;;9.70;1.88;;;;;;;19.51;100.00;98654.72;5095479;28;20031;-89
2022/07/29 05:51:00;;;;;;;6.47;1.80;;;;;;;18.93;100.00;98661.75;5094361;28;20028;-89
2022/07/29 05:53:25;;;;;;;6.38;1.63;;;;;;;18.71;100.00;98658.31;5074591;28;20573;-90
2022/07/29 05:55:52;;;;;;;8.95;1.92;;;;;;;18.90;100.00;98663.66;5093236;28;20099;-87
2022/07/29 05:58:17;;;;;;;7.25;1.77;;;;;;;18.46;100.00;98661.16;5090165;28;20071;-87
2022/07/29 06:00:43;;;;;;;7.72;1.92;;;;;;;18.43;100.00;98660.34;5092917;28;20155;-90
2022/07/29 06:03:09;;;;;;;7.53;1.80;;;;;;;17.47;100.00;98663.34;5093862;28;20402;-89
2022/07/29 06:05:34;;;;;;;7.25;2.05;;;;;;;18.12;100.00;98662.56;5090854;28;20024;-90
2022/07/29 06:08:00;;;;;;;7.93;1.77;;;;;;;18.00;100.00;98656.88;5115800;27;20095;-86
2022/07/29 06:10:26;;;;;;;7.70;2.15;;;;;;;17.41;100.00;98671.47;5097463;28;20027;-89
2022/07/29 06:12:52;;;;;;;6.25;1.65;;;;;;;17.71;100.00;98661.50;5088759;28;20032;-87
2022/07/29 06:15:17;;;;;;;9.00;2.25;;;;;;;18.19;100.00;98664.03;5093185;28;20348;-87
2022/07/29 06:17:43;;;;;;;10.27;2.08;;;;;;;18.08;100.00;98677.69;5099585;28;20367;-90
2022/07/29 06:20:09;;;;;;;8.00;2.17;;;;;;;17.27;100.00;98677.31;5095458;28;20041;-87
2022/07/29 06:22:35;;;;;;;6.82;1.88;;;;;;;17.54;100.00;98677.16;5089057;28;20116;-87
2022/07/29 06:25:02;;;;;;;7.70;2.00;;;;;;;17.59;100.00;98677.81;5089721;28;20122;-87
2022/07/29 06:27:27;;;;;;;8.85;1.98;;;;;;;18.04;100.00;98676.94;5096068;28;20629;-89
2022/07/29 06:29:54;;;;;;;7.72;2.00;;;;;;;17.94;100.00;98683.53;5091593;28;20068;-89
2022/07/29 06:32:21;;;;;;;6.70;1.88;;;;;;;18.72;100.00;98668.81;5090933;28;20394;-89
2022/07/29 06:34:47;;;;;;;7.32;1.90;;;;;;;18.51;100.00;98667.97;5090026;28;20027;-87
2022/07/29 06:37:12;;;;;;;6.45;2.00;;;;;;;18.21;100.00;98667.47;5091656;28;20035;-90
2022/07/29 06:39:38;;;;;;;7.97;2.30;;;;;;;18.08;100.00;98673.25;5090326;28;20443;-88
2022/07/29 06:42:04;;;;;;;9.48;2.15;;;;;;;17.90;100.00;98681.91;5093022;28;20026;-88
2022/07/29 06:44:30;;;;;;;7.40;2.47;;;;;;;17.65;100.00;98685.50;5089599;28;20034;-88
2022/07/29 06:46:56;;;;;;;8.13;2.20;;;;;;;17.90;100.00;98684.53;5089746;28;20062;-90
2022/07/29 06:49:23;;;;;;;7.82;2.25;;;;;;;18.46;100.00;98685.78;5089679;28;20637;-88
2022/07/29 06:51:48;;;;;;;7.43;2.30;;;;;;;17.90;100.00;98688.03;5092827;28;20032;-88
2022/07/29 06:54:14;;;;;;;7.43;2.28;;;;;;;17.66;100.00;98687.22;5086913;28;20133;-88
2022/07/29 06:56:41;;;;;;;7.78;2.20;;;;;;;18.01;100.00;98679.72;5089259;28;20518;-90
2022/07/29 06:59:10;;;;;;;7.03;2.00;;;;;;;17.98;100.00;98685.13;5092391;28;20032;-90
2022/07/29 07:01:38;;;;;;;7.60;1.98;;;;;;;18.40;100.00;98692.19;5086550;28;20028;-90
2022/07/29 07:04:04;;;;;;;8.57;2.25;;;;;;;18.34;100.00;98687.13;5092197;28;20032;-89
2022/07/29 07:06:29;;;;;;;10.88;2.28;;;;;;;18.22;100.00;98685.88;5091162;28;20031;-89
2022/07/29 07:08:55;;;;;;;9.48;2.15;;;;;;;17.97;100.00;98693.06;5089016;28;20015;-90
2022/07/29 07:11:21;;;;;;;8.85;2.15;;;;;;;17.84;100.00;98690.03;5092686;28;20031;-90
2022/07/29 07:13:46;;;;;;;8.73;2.28;;;;;;;17.70;100.00;98698.50;5090503;28;20024;-90
2022/07/29 07:16:12;;;;;;;9.68;2.10;;;;;;;17.77;100.00;98699.13;5089576;28;20258;-90
2022/07/29 07:18:37;;;;;;;8.63;2.03;;;;;;;18.03;100.00;98695.47;5100106;28;20024;-90
2022/07/29 07:21:04;;;;;;;9.05;2.30;;;;;;;17.99;100.00;98692.09;5099156;28;20031;-90
2022/07/29 07:23:30;;;;;;;8.43;2.20;;;;;;;17.84;100.00;98701.47;5100159;28;20019;-88
2022/07/29 07:25:56;;;;;;;7.93;1.90;;;;;;;17.94;100.00;98696.72;5101854;28;20034;-90
2022/07/29 07:28:21;;;;;;;11.18;2.20;;;;;;;17.31;100.00;98697.31;5096101;28;20427;-89
2022/07/29 07:30:47;;;;;;;8.32;2.47;;;;;;;17.31;100.00;98699.97;5101762;28;20710;-89
2022/07/29 07:33:13;;;;;;;9.55;2.30;;;;;;;17.19;100.00;98713.63;5095463;28;20461;-89
2022/07/29 07:35:39;;;;;;;7.97;2.20;;;;;;;17.14;100.00;98716.41;5098402;28;20042;-90
2022/07/29 07:38:05;;;;;;;8.02;2.10;;;;;;;17.56;100.00;98714.84;5091209;28;20027;-88
2022/07/29 07:40:31;;;;;;;8.25;2.17;;;;;;;17.46;100.00;98716.13;5095451;28;20092;-90
2022/07/29 07:42:57;;;;;;;10.48;2.67;;;;;;;17.37;100.00;98717.34;5095177;28;20036;-87
2022/07/29 07:45:23;;;;;;;8.02;2.20;;;;;;;17.47;100.00;98716.06;5099935;28;20456;-90
2022/07/29 07:47:50;;;;;;;8.50;2.15;;;;;;;17.52;100.00;98714.13;5098955;28;20107;-87
2022/07/29 07:50:17;;;;;;;7.13;2.03;;;;;;;17.83;100.00;98717.34;5093552;28;20020;-88
2022/07/29 07:52:54;;;;;;;9.10;2.28;;;;;;;18.51;100.00;98709.34;5092015;28;20068;-87
2022/07/29 07:55:20;;;;;;;10.88;2.67;;;;;;;18.41;100.00;98715.03;5092917;28;20450;-89
2022/07/29 07:57:46;;;;;;;11.77;2.60;;;;;;;18.14;100.00;98710.88;5097373;28;20138;-88
2022/07/29 08:00:14;;;;;;;8.98;2.58;;;;;;;18.43;100.00;98710.53;5094098;28;20028;-90
2022/07/29 08:02:40;;;;;;;8.07;2.15;;;;;;;18.25;100.00;98706.88;5093139;28;20098;-88
2022/07/29 08:05:10;;;;;;;9.23;2.22;;;;;;;17.77;100.00;98709.69;5094748;28;20581;-88
2022/07/29 08:07:36;;;;;;;7.50;2.60;;;;;;;18.19;100.00;98714.19;5099073;27;20081;-88
2022/07/29 08:10:02;;;;;;;8.40;2.47;;;;;;;18.48;100.00;98702.41;5092477;28;20028;-88
2022/07/29 08:12:28;;;;;;;10.00;2.50;;;;;;;18.86;100.00;98689.34;5096651;28;20059;-88
2022/07/29 08:14:54;;;;;;;11.35;2.08;;;;;;;18.14;100.00;98705.59;5097216;28;20475;-88
2022/07/29 08:17:23;;;;;;;9.27;2.28;;;;;;;17.91;100.00;98705.63;5091729;28;20027;-89
2022/07/29 08:19:49;;;;;;;6.93;2.20;;;;;;;17.35;100.00;98711.25;5091030;28;20403;-90
2022/07/29 08:22:15;;;;;;;7.85;2.15;;;;;;;18.14;100.00;98703.81;5094427;28;20387;-88
2022/07/29 08:24:44;;;;;;;11.60;2.70;;;;;;;17.58;100.00;98705.97;5094539;28;20026;-89
2022/07/29 08:27:13;;;;;;;7.55;2.35;;;;;;;18.43;100.00;98707.03;5095049;28;20173;-89
2022/07/29 08:29:39;;;;;;;9.60;2.22;;;;;;;18.18;100.00;98710.69;5090842;28;20189;-88
2022/07/29 08:32:05;;;;;;;8.43;2.30;;;;;;;18.21;100.00;98702.63;5092096;28;20031;-89
2022/07/29 08:34:31;;;;;;;8.32;2.63;;;;;;;18.30;100.00;98701.41;5089426;28;20032;-88
2022/07/29 08:36:57;;;;;;;11.05;2.38;;;;;;;18.04;100.00;98711.25;5087696;28;20028;-88
2022/07/29 08:39:24;;;;;;;8.77;2.10;;;;;;;17.90;100.00;98708.28;5092856;28;20143;-88
2022/07/29 08:41:51;;;;;;;6.85;2.30;;;;;;;18.58;100.00;98694.97;5087921;28;20038;-92
2022/07/29 08:44:18;;;;;;;8.70;2.13;;;;;;;18.73;100.00;98694.31;5092662;28;20034;-93
2022/07/29 08:46:44;;;;;;;10.02;2.35;;;;;;;18.84;100.00;98693.81;5094585;28;20084;-94
2022/07/29 08:49:10;;;;;;;13.20;2.38;;;;;;;17.96;100.00;98702.78;5099590;28;20547;-94
2022/07/29 08:51:36;;;;;;;11.43;2.22;;;;;;;18.58;100.00;98697.63;5095317;28;20028;-92
2022/07/29 08:54:02;;;;;;;7.47;1.90;;;;;;;18.85;100.00;98700.81;5095572;28;20051;-93
2022/07/29 08:56:29;;;;;;;10.00;2.10;;;;;;;18.39;100.00;98702.81;5102749;28;20098;-93
2022/07/29 08:58:58;;;;;;;9.15;2.25;;;;;;;18.10;100.00;98704.03;5097897;28;20027;-91
2022/07/29 09:01:27;;;;;;;8.52;2.10;;;;;;;18.63;100.00;98694.78;5093056;28;20028;-92
2022/07/29 09:03:56;;;;;;;7.13;2.25;;;;;;;19.19;100.00;98694.09;5093710;28;20050;-92
2022/07/29 09:06:26;;;;;;;10.20;2.83;;;;;;;18.85;100.00;98692.06;5091090;28;20086;-92
2022/07/29 09:08:51;;;;;;;8.90;2.45;;;;;;;18.17;100.00;98705.47;5091158;28;20023;-94
2022/07/29 09:11:17;;;;;;;10.30;2.35;;;;;;;18.20;100.00;98697.44;5092021;28;20020;-87
2022/07/29 09:13:43;;;;;;;8.98;2.17;;;;;;;18.39;100.00;98693.09;5090038;28;20128;-87
2022/07/29 09:16:09;;;;;;;9.85;2.63;;;;;;;18.90;100.00;98688.31;5092800;28;20046;-86
2022/07/29 09:18:41;;;;;;;8.50;2.50;;;;;;;18.19;100.00;98706.25;5091405;28;20456;-87
2022/07/29 09:24:15;;;;;;;8.85;2.72;;;;;;;18.23;100.00;98700.81;5094676;28;20031;-92
2022/07/29 09:26:43;;;;;;;9.25;2.30;;;;;;;18.55;100.00;98697.72;5096999;28;20073;-92
2022/07/29 09:29:15;;;;;;;11.48;2.72;;;;;;;18.91;100.00;98703.25;5091083;28;20475;-94
2022/07/29 09:31:43;;;;;;;10.85;2.42;;;;;;;19.06;100.00;98699.03;5093367;28;20035;-92
2022/07/29 09:34:14;;;;;;;9.57;2.45;;;;;;;18.94;100.00;98696.94;5097072;28;20035;-93
2022/07/29 09:36:48;;;;;;;11.63;2.78;;;;;;;18.72;100.00;98695.22;5090831;28;20036;-92
2022/07/29 09:39:24;;;;;;;10.98;2.70;;;;;;;19.10;100.00;98705.06;5095244;28;20027;-93
2022/07/29 09:41:52;;;;;;;14.45;3.50;;;;;;;19.02;100.00;98701.91;5095303;28;20023;-93
2022/07/29 09:44:19;;;;;;;9.10;2.53;;;;;;;19.21;100.00;98691.38;5093622;28;20024;-93
2022/07/29 09:47:02;;;;;;;8.50;2.63;;;;;;;19.41;100.00;98696.56;5091829;28;20024;-93
2022/07/29 09:49:28;;;;;;;10.18;2.50;;;;;;;19.88;100.00;98683.88;5092024;28;20069;-92
2022/07/29 09:52:04;;;;;;;10.00;2.50;;;;;;;19.65;100.00;98690.22;5103013;28;20028;-94
2022/07/29 09:54:45;;;;;;;11.32;2.55;;;;;;;20.29;100.00;98689.78;5087582;28;20040;-94
2022/07/29 09:57:23;;;;;;;8.38;2.22;;;;;;;19.86;100.00;98683.94;5064909;28;20055;-94
2022/07/29 10:00:09;;;;;;;8.07;2.00;;;;;;;20.14;100.00;98685.25;5083361;28;20039;-93
2022/07/29 10:02:37;;;;;;;9.68;2.20;;;;;;;19.76;100.00;98688.78;5064602;28;20024;-95
2022/07/29 10:05:06;;;;;;;9.77;2.25;;;;;;;20.34;100.00;98694.84;5086259;28;20024;-94
2022/07/29 10:07:49;;;;;;;8.93;2.10;;;;;;;20.18;100.00;98686.81;5066961;28;20086;-95
2022/07/29 10:10:23;;;;;;;10.35;2.28;;;;;;;20.15;100.00;98688.75;5065347;28;20035;-95
2022/07/29 10:13:11;;;;;;;10.57;2.50;;;;;;;19.91;100.00;98692.50;5067788;28;20113;-94
2022/07/29 10:15:44;;;;;;;9.95;2.30;;;;;;;20.49;100.00;98687.03;5082690;28;20368;-94
2022/07/29 10:18:11;;;;;;;9.80;2.17;;;;;;;20.55;100.00;98692.03;5064812;28;20039;-94
2022/07/29 10:20:38;;;;;;;11.32;2.30;;;;;;;20.84;100.00;98689.72;5081800;28;20043;-93
2022/07/29 10:23:05;;;;;;;14.05;2.28;;;;;;;20.72;100.00;98688.56;5069002;28;20046;-94
2022/07/29 10:25:31;;;;;;;7.13;2.03;;;;;;;20.01;100.00;98692.06;5064253;28;20020;-93
2022/07/29 10:27:57;;;;;;;6.35;1.80;;;;;;;20.73;100.00;98691.13;5064296;28;20466;-93
2022/07/29 10:30:25;;;;;;;6.60;1.75;;;;;;;21.01;100.00;98689.66;5057256;28;20027;-94
2022/07/29 10:32:59;;;;;;;9.35;1.80;;;;;;;20.57;100.00;98701.63;5081427;28;20020;-94
2022/07/29 10:35:33;;;;;;;6.38;1.67;;;;;;;20.17;100.00;98695.69;5057552;28;20488;-93
2022/07/29 10:38:43;;;;;;;7.47;1.88;;;;;;;20.35;100.00;98696.56;5075363;28;20039;-91
2022/07/29 10:41:27;;;;;;;9.25;2.38;;;;;;;20.76;100.00;98696.25;5048339;28;20036;-94
2022/07/29 10:44:23;;;;;;;8.32;2.10;;;;;;;20.88;100.00;98688.63;5055054;28;20039;-90
2022/07/29 10:46:50;;;;;;;7.80;2.10;;;;;;;21.90;100.00;98694.59;5076661;28;20025;-92
2022/07/29 10:49:15;;;;;;;7.65;1.90;;;;;;;22.04;100.00;98699.09;5077901;28;20039;-92
2022/07/29 10:51:50;;;;;;;7.25;1.88;;;;;;;21.66;100.00;98696.81;5062302;28;20437;-94
2022/07/29 10:54:17;;;;;;;7.63;2.10;;;;;;;21.35;100.00;98697.63;5065979;28;20131;-93
2022/07/29 10:56:43;;;;;;;8.20;1.95;;;;;;;21.23;100.00;98691.19;5096620;28;20246;-91
2022/07/29 10:59:20;;;;;;;9.93;1.88;;;;;;;20.86;100.00;98699.28;5095623;28;20031;-93
2022/07/29 11:01:49;;;;;;;8.27;1.95;;;;;;;21.02;100.00;98701.16;5093918;28;20054;-91
2022/07/29 11:04:15;;;;;;;6.88;1.77;;;;;;;21.63;100.00;98703.16;5094701;28;20118;-90
2022/07/29 11:07:00;;;;;;;8.25;1.90;;;;;;;21.71;100.00;98700.09;5094772;28;20042;-93
2022/07/29 11:09:26;;;;;;;8.18;1.92;;;;;;;21.97;100.00;98703.06;5092076;28;20028;-92
2022/07/29 11:11:52;;;;;;;8.15;2.08;;;;;;;21.47;100.00;98702.25;5090898;28;20039;-91
2022/07/29 11:14:53;;;;;;;8.13;2.03;;;;;;;21.19;100.00;98701.09;5087162;28;20081;-92
2022/07/29 11:17:19;;;;;;;8.93;2.00;;;;;;;21.58;100.00;98705.19;5086319;28;20068;-91
2022/07/29 11:19:45;;;;;;;10.20;2.20;;;;;;;21.85;100.00;98712.59;5088554;28;20032;-91
2022/07/29 11:22:11;;;;;;;8.02;2.00;;;;;;;21.55;100.00;98717.81;5091135;28;20038;-90
2022/07/29 11:24:37;;;;;;;9.00;2.25;;;;;;;21.19;100.00;98718.81;5090521;28;20024;-90
2022/07/29 11:27:11;;;;;;;11.85;2.10;;;;;;;21.06;100.00;98719.47;5094546;28;20065;-91
2022/07/29 11:29:57;;;;;;;10.00;2.10;;;;;;;21.41;100.00;98722.03;5091989;28;20040;-91
2022/07/29 11:32:25;;;;;;;9.02;2.50;;;;;;;21.56;100.00;98711.53;5091173;28;20059;-90
2022/07/29 11:35:14;;;;;;;9.27;2.50;;;;;;;20.02;100.00;98715.81;5090138;28;21689;-89
2022/07/29 11:37:39;;;;;;;6.85;2.38;;;;;;;20.09;100.00;98716.38;5092120;28;20113;-92